Lake Success — V7NO8 — position and weather

sailwx.info

Track history (hours):
 
Tides and Currents Weather Stations Pressure Air Temp Water Temp Dewpoint Dewpoint Depression Visibility Wind Speed Wind Dir Waves Ship Positions

Lake Success

Last reported at 2018-Apr-11 15:16 UTC. Time now 2018-Apr-22 02:27 UTC.
Position S 29°21' E 031°52'.
Warning: this ship's position is 10 days out of date.

Length 85 m; draft 4.8 m.

Type: Cargo ship. MMSI: 538002989.

Date/timePositionNaut miles runAvg speedWind from/ knotsBaromVisibWave heightAir tempDewpointWater temp
2018-Apr-11 15:16S 29°21' E 031°52'310.8
2018-Apr-11 15:00S 29°23' E 031°49'511.0
2018-Apr-11 14:30S 29°27' E 031°45'510.7
2018-Apr-11 14:00S 29°31' E 031°40'510.9
2018-Apr-11 13:30S 29°34' E 031°36'611.0
2018-Apr-11 13:00S 29°38' E 031°31'611.0
2018-Apr-11 12:30S 29°41' E 031°26'611.3
2018-Apr-11 12:00S 29°44' E 031°21'611.6
2018-Apr-11 11:30S 29°48' E 031°15'510.2
2018-Apr-11 11:00S 29°50' E 031°10'1 2.1
2018-Apr-11 10:30S 29°51' E 031°09'1 1.9
2018-Apr-11 10:00S 29°52' E 031°09'1 2.5
2018-Apr-11 09:30S 29°53' E 031°08'3 6.7
2018-Apr-11 08:59S 29°56' E 031°06'510.2
2018-Apr-11 08:30S 30°01' E 031°05'510.3
2018-Apr-11 08:00S 30°06' E 031°04'611.4
2018-Apr-11 07:30S 30°12' E 031°03'612.0
2018-Apr-11 07:00S 30°17' E 031°01'611.8
2018-Apr-11 06:30S 30°23' E 030°60'611.4
2018-Apr-11 06:00S 30°29' E 030°58'  
Track history (hours):
 
Tides and Currents Weather Stations Pressure Air Temp Water Temp Dewpoint Dewpoint Depression Visibility Wind Speed Wind Dir Waves Ship Positions

Lake Success

Last reported at 2018-Apr-11 15:16 UTC. Time now 2018-Apr-22 02:27 UTC.
Position S 29°21' E 031°52'.
Warning: this ship's position is 10 days out of date.

Length 85 m; draft 4.8 m.

Type: Cargo ship. MMSI: 538002989.

Date/timePositionNaut miles runAvg speedWind from/ knotsBaromVisibWave heightAir tempDewpointWater temp
2018-Apr-11 15:16S 29°21' E 031°52'310.8
2018-Apr-11 15:00S 29°23' E 031°49'511.0
2018-Apr-11 14:30S 29°27' E 031°45'510.7
2018-Apr-11 14:00S 29°31' E 031°40'510.9
2018-Apr-11 13:30S 29°34' E 031°36'611.0
2018-Apr-11 13:00S 29°38' E 031°31'611.0
2018-Apr-11 12:30S 29°41' E 031°26'611.3
2018-Apr-11 12:00S 29°44' E 031°21'611.6
2018-Apr-11 11:30S 29°48' E 031°15'510.2
2018-Apr-11 11:00S 29°50' E 031°10'1 2.1
2018-Apr-11 10:30S 29°51' E 031°09'1 1.9
2018-Apr-11 10:00S 29°52' E 031°09'1 2.5
2018-Apr-11 09:30S 29°53' E 031°08'3 6.7
2018-Apr-11 08:59S 29°56' E 031°06'510.2
2018-Apr-11 08:30S 30°01' E 031°05'510.3
2018-Apr-11 08:00S 30°06' E 031°04'611.4
2018-Apr-11 07:30S 30°12' E 031°03'612.0
2018-Apr-11 07:00S 30°17' E 031°01'611.8
2018-Apr-11 06:30S 30°23' E 030°60'611.4
2018-Apr-11 06:00S 30°29' E 030°58'  

Dump ship's entire track history